createdAt,value
2023-04-22T00:00:09.586Z,69.13
2023-04-22T00:02:38.575Z,69.82
2023-04-22T00:05:07.240Z,69.44
2023-04-22T00:07:34.135Z,70.37
2023-04-22T00:10:11.032Z,69.61
2023-04-22T00:12:37.847Z,70.23
2023-04-22T00:15:05.314Z,69.51
2023-04-22T00:17:32.982Z,69.53
2023-04-22T00:20:01.598Z,69.88
2023-04-22T00:22:28.293Z,70.81
2023-04-22T00:24:59.622Z,71.70
2023-04-22T00:27:26.349Z,72.10
2023-04-22T00:29:53.086Z,72.12
2023-04-22T00:32:19.816Z,73.41
2023-04-22T00:34:47.218Z,73.37
2023-04-22T00:37:13.947Z,74.43
2023-04-22T00:39:43.713Z,73.40
2023-04-22T00:42:10.862Z,76.11
2023-04-22T00:44:38.280Z,100.00
2023-04-22T00:47:05.234Z,75.10
2023-04-22T00:49:32.729Z,74.87
2023-04-22T00:51:59.472Z,74.55
2023-04-22T00:54:26.372Z,100.00
2023-04-22T00:56:58.188Z,100.00
2023-04-22T00:59:26.355Z,100.00
2023-04-22T01:02:00.286Z,100.00
2023-04-22T01:04:27.031Z,100.00
2023-04-22T01:06:54.353Z,100.00
2023-04-22T01:09:21.146Z,100.00
2023-04-22T01:11:48.243Z,100.00
2023-04-22T01:14:17.822Z,100.00
2023-04-22T01:16:45.745Z,100.00
2023-04-22T01:19:12.603Z,100.00
2023-04-22T01:21:40.049Z,100.00
2023-04-22T01:24:10.659Z,100.00
2023-04-22T01:26:37.936Z,100.00
2023-04-22T01:29:14.594Z,100.00
2023-04-22T01:31:44.712Z,100.00
2023-04-22T01:34:11.562Z,100.00
2023-04-22T01:36:39.016Z,100.00
2023-04-22T01:39:05.977Z,100.00
2023-04-22T01:41:32.843Z,100.00
2023-04-22T01:44:03.259Z,100.00
2023-04-22T01:46:32.585Z,100.00
2023-04-22T01:49:05.693Z,100.00
2023-04-22T01:51:41.843Z,100.00
2023-04-22T01:54:10.519Z,100.00
2023-04-22T01:56:38.910Z,100.00
2023-04-22T01:59:14.820Z,100.00
2023-04-22T02:01:41.612Z,100.00
2023-04-22T02:04:08.444Z,100.00
2023-04-22T02:06:35.262Z,100.00
2023-04-22T02:09:02.582Z,100.00
2023-04-22T02:11:29.392Z,100.00
2023-04-22T02:14:02.860Z,100.00
2023-04-22T02:16:30.104Z,100.00
2023-04-22T02:18:56.981Z,100.00
2023-04-22T02:21:23.899Z,100.00
2023-04-22T02:23:50.801Z,100.00
2023-04-22T02:26:18.772Z,100.00
2023-04-22T02:28:57.204Z,100.00
2023-04-22T02:31:25.809Z,100.00
2023-04-22T02:33:52.481Z,100.00
2023-04-22T02:36:22.418Z,100.00
2023-04-22T02:38:50.437Z,100.00
2023-04-22T02:41:17.504Z,100.00
2023-04-22T02:43:46.588Z,100.00
2023-04-22T02:46:17.027Z,100.00
2023-04-22T02:48:49.840Z,100.00
2023-04-22T02:51:19.121Z,100.00
2023-04-22T02:53:45.903Z,100.00
2023-04-22T02:56:12.643Z,100.00
2023-04-22T02:58:39.339Z,100.00
2023-04-22T03:01:10.135Z,100.00
2023-04-22T03:03:36.947Z,100.00
2023-04-22T03:06:03.898Z,100.00
2023-04-22T03:08:30.615Z,100.00
2023-04-22T03:10:57.369Z,100.00
2023-04-22T03:13:24.068Z,100.00
2023-04-22T03:15:50.759Z,100.00
2023-04-22T03:18:18.189Z,100.00
2023-04-22T03:20:45.195Z,100.00
2023-04-22T03:23:11.979Z,100.00
2023-04-22T03:25:39.234Z,100.00
2023-04-22T03:28:06.049Z,100.00
2023-04-22T03:30:32.817Z,100.00
2023-04-22T03:32:59.763Z,100.00
2023-04-22T03:35:30.643Z,100.00
2023-04-22T03:37:57.569Z,100.00
2023-04-22T03:40:27.053Z,100.00
2023-04-22T03:42:53.995Z,100.00
2023-04-22T03:45:20.859Z,100.00
2023-04-22T03:47:47.927Z,100.00
2023-04-22T03:50:17.530Z,100.00
2023-04-22T03:52:47.518Z,100.00
2023-04-22T03:55:14.269Z,100.00
2023-04-22T03:57:47.369Z,100.00
2023-04-22T04:00:14.368Z,100.00
2023-04-22T04:02:41.694Z,100.00
2023-04-22T04:05:12.196Z,100.00
2023-04-22T04:07:48.621Z,100.00
2023-04-22T04:10:17.487Z,100.00
2023-04-22T04:12:44.392Z,100.00
2023-04-22T04:15:12.126Z,100.00
2023-04-22T04:17:42.668Z,100.00
2023-04-22T04:20:09.865Z,100.00
2023-04-22T04:22:37.836Z,100.00
2023-04-22T04:25:05.035Z,100.00
2023-04-22T04:27:31.785Z,100.00
2023-04-22T04:29:58.915Z,100.00
2023-04-22T04:32:30.358Z,100.00
2023-04-22T04:34:57.793Z,100.00
2023-04-22T04:37:24.550Z,100.00
2023-04-22T04:39:54.260Z,100.00
2023-04-22T04:42:21.645Z,100.00
2023-04-22T04:44:48.889Z,100.00
2023-04-22T04:47:16.810Z,100.00
2023-04-22T04:49:43.829Z,100.00
2023-04-22T04:52:12.148Z,100.00
2023-04-22T04:54:38.926Z,100.00
2023-04-22T04:57:05.836Z,100.00
2023-04-22T04:59:32.618Z,100.00
2023-04-22T05:01:59.423Z,100.00
2023-04-22T05:04:26.429Z,100.00
2023-04-22T05:06:53.709Z,100.00
2023-04-22T05:09:24.611Z,100.00
2023-04-22T05:11:51.442Z,100.00
2023-04-22T05:14:18.185Z,100.00
2023-04-22T05:16:45.026Z,100.00
2023-04-22T05:19:11.785Z,100.00
2023-04-22T05:21:38.552Z,100.00
2023-04-22T05:24:05.546Z,100.00
2023-04-22T05:26:32.299Z,100.00
2023-04-22T05:28:59.670Z,100.00
2023-04-22T05:31:27.184Z,100.00
2023-04-22T05:33:54.142Z,100.00
2023-04-22T05:36:22.083Z,100.00
2023-04-22T05:38:48.830Z,100.00
2023-04-22T05:41:15.951Z,100.00
2023-04-22T05:43:42.795Z,100.00
2023-04-22T05:46:09.588Z,100.00
2023-04-22T05:48:39.409Z,100.00
2023-04-22T05:51:06.100Z,100.00
2023-04-22T05:53:32.809Z,100.00
2023-04-22T05:55:59.740Z,100.00
2023-04-22T05:58:28.607Z,100.00
2023-04-22T06:00:55.496Z,100.00
2023-04-22T06:03:22.446Z,100.00
2023-04-22T06:05:49.381Z,100.00
2023-04-22T06:08:16.539Z,100.00
2023-04-22T06:10:43.498Z,100.00
2023-04-22T06:13:10.239Z,100.00
2023-04-22T06:15:37.071Z,100.00
2023-04-22T06:18:03.974Z,100.00
2023-04-22T06:20:37.660Z,100.00
2023-04-22T06:23:05.529Z,100.00
2023-04-22T06:25:35.468Z,100.00
2023-04-22T06:28:02.217Z,100.00
2023-04-22T06:30:34.389Z,100.00
2023-04-22T06:33:01.292Z,100.00
2023-04-22T06:35:28.234Z,100.00
2023-04-22T06:37:55.011Z,100.00
2023-04-22T06:40:21.827Z,100.00
2023-04-22T06:42:51.664Z,100.00
2023-04-22T06:45:18.966Z,100.00
2023-04-22T06:47:45.861Z,100.00
2023-04-22T06:50:14.426Z,100.00
2023-04-22T06:52:41.194Z,100.00
2023-04-22T06:55:14.360Z,100.00
2023-04-22T06:57:41.104Z,100.00
2023-04-22T07:00:09.128Z,100.00
2023-04-22T07:02:36.083Z,100.00
2023-04-22T07:05:05.288Z,100.00
2023-04-22T07:07:32.591Z,100.00
2023-04-22T07:09:59.197Z,100.00
2023-04-22T07:12:25.942Z,100.00
2023-04-22T07:14:52.677Z,100.00
2023-04-22T07:17:22.534Z,100.00
2023-04-22T07:19:50.746Z,100.00
2023-04-22T07:22:17.510Z,100.00
2023-04-22T07:24:44.222Z,100.00
2023-04-22T07:27:11.082Z,100.00
2023-04-22T07:29:40.787Z,100.00
2023-04-22T07:32:08.028Z,100.00
2023-04-22T07:34:35.408Z,100.00
2023-04-22T07:37:02.791Z,100.00
2023-04-22T07:39:30.493Z,100.00
2023-04-22T07:41:57.240Z,100.00
2023-04-22T07:44:24.043Z,100.00
2023-04-22T07:46:51.419Z,100.00
2023-04-22T07:49:18.217Z,100.00
2023-04-22T07:51:45.114Z,100.00
2023-04-22T07:54:12.143Z,100.00
2023-04-22T07:56:38.959Z,100.00
2023-04-22T07:59:06.305Z,100.00
2023-04-22T08:01:33.079Z,100.00
2023-04-22T08:04:00.104Z,100.00
2023-04-22T08:06:28.256Z,100.00
2023-04-22T08:08:55.113Z,100.00
2023-04-22T08:11:21.960Z,100.00
2023-04-22T08:13:48.809Z,100.00
2023-04-22T08:16:15.915Z,100.00
2023-04-22T08:18:45.204Z,100.00
2023-04-22T08:21:15.133Z,100.00
2023-04-22T08:23:50.893Z,100.00
2023-04-22T08:26:17.760Z,100.00
2023-04-22T08:28:44.640Z,100.00
2023-04-22T08:31:17.425Z,100.00
2023-04-22T08:33:44.257Z,100.00
2023-04-22T08:36:14.481Z,100.00
2023-04-22T08:38:41.961Z,100.00
2023-04-22T08:41:08.772Z,100.00
2023-04-22T08:43:38.699Z,100.00
2023-04-22T08:46:06.018Z,100.00
2023-04-22T08:48:35.448Z,100.00
2023-04-22T08:51:02.841Z,100.00
2023-04-22T08:53:29.892Z,100.00
2023-04-22T08:55:57.222Z,100.00
2023-04-22T08:58:31.750Z,100.00
2023-04-22T09:00:58.702Z,100.00
2023-04-22T09:03:26.807Z,100.00
2023-04-22T09:05:54.875Z,100.00
2023-04-22T09:08:28.769Z,100.00
2023-04-22T09:10:55.803Z,100.00
2023-04-22T09:13:23.348Z,100.00
2023-04-22T09:15:50.071Z,100.00
2023-04-22T09:18:20.081Z,100.00
2023-04-22T09:20:54.628Z,100.00
2023-04-22T09:23:21.674Z,100.00
2023-04-22T09:25:48.455Z,100.00
2023-04-22T09:28:19.300Z,100.00
2023-04-22T09:30:47.122Z,100.00
2023-04-22T09:33:14.693Z,100.00
2023-04-22T09:35:47.787Z,100.00
2023-04-22T09:38:14.564Z,100.00
2023-04-22T09:40:44.685Z,100.00
2023-04-22T09:43:16.044Z,100.00
2023-04-22T09:45:43.673Z,100.00
2023-04-22T09:48:12.539Z,100.00
2023-04-22T09:50:43.510Z,100.00
2023-04-22T09:53:17.525Z,100.00
2023-04-22T09:55:46.873Z,100.00
2023-04-22T09:58:24.930Z,100.00
2023-04-22T10:00:54.967Z,100.00
2023-04-22T10:03:22.083Z,100.00
2023-04-22T10:05:48.922Z,100.00
2023-04-22T10:08:17.045Z,100.00
2023-04-22T10:10:48.073Z,100.00
2023-04-22T10:13:17.575Z,100.00
2023-04-22T10:15:52.973Z,100.00
2023-04-22T10:18:31.288Z,100.00
2023-04-22T10:21:03.677Z,100.00
2023-04-22T10:23:33.055Z,100.00
2023-04-22T10:26:00.041Z,100.00
2023-04-22T10:28:36.986Z,100.00
2023-04-22T10:31:10.107Z,100.00
2023-04-22T10:33:40.207Z,100.00
2023-04-22T10:36:09.036Z,100.00
2023-04-22T10:38:37.548Z,100.00
2023-04-22T10:41:04.922Z,100.00
2023-04-22T10:44:02.451Z,100.00
2023-04-22T10:46:37.378Z,100.00
2023-04-22T10:49:08.810Z,100.00
2023-04-22T10:51:42.289Z,100.00
2023-04-22T10:54:31.856Z,100.00
2023-04-22T10:57:09.393Z,100.00
2023-04-22T10:59:46.435Z,100.00
2023-04-22T11:02:16.049Z,100.00
2023-04-22T11:04:43.556Z,100.00
2023-04-22T11:07:20.865Z,100.00
2023-04-22T11:09:58.615Z,100.00
2023-04-22T11:12:43.532Z,100.00
2023-04-22T11:15:20.164Z,100.00
2023-04-22T11:17:48.763Z,100.00
2023-04-22T11:20:19.140Z,100.00
2023-04-22T11:22:51.772Z,100.00
2023-04-22T11:25:19.417Z,100.00
2023-04-22T11:27:46.631Z,100.00
2023-04-22T11:30:21.110Z,100.00
2023-04-22T11:33:00.020Z,100.00
2023-04-22T11:35:35.227Z,100.00
2023-04-22T11:38:04.366Z,100.00
2023-04-22T11:40:38.316Z,100.00
2023-04-22T11:43:10.565Z,100.00
2023-04-22T11:45:38.889Z,100.00
2023-04-22T11:48:11.693Z,100.00
2023-04-22T11:50:44.886Z,100.00
2023-04-22T11:53:22.768Z,100.00
2023-04-22T11:55:51.799Z,100.00
2023-04-22T11:58:30.603Z,100.00
2023-04-22T12:00:59.727Z,100.00
2023-04-22T12:03:29.001Z,100.00
2023-04-22T12:05:55.913Z,100.00
2023-04-22T12:08:25.920Z,100.00
2023-04-22T12:10:59.411Z,100.00
2023-04-22T12:13:32.077Z,100.00
2023-04-22T12:16:05.440Z,100.00
2023-04-22T12:18:40.270Z,100.00
2023-04-22T12:21:06.945Z,100.00
2023-04-22T12:23:43.621Z,100.00
2023-04-22T12:26:10.679Z,100.00
2023-04-22T12:28:38.443Z,100.00
2023-04-22T12:31:07.610Z,100.00
2023-04-22T12:33:36.304Z,100.00
2023-04-22T12:36:10.836Z,100.00
2023-04-22T12:38:38.391Z,100.00
2023-04-22T12:41:06.667Z,100.00
2023-04-22T12:43:36.946Z,100.00
2023-04-22T12:46:04.877Z,100.00
2023-04-22T12:48:32.309Z,100.00
2023-04-22T12:50:59.738Z,100.00
2023-04-22T12:53:28.854Z,100.00
2023-04-22T12:55:57.053Z,100.00
2023-04-22T12:58:29.766Z,100.00
2023-04-22T13:00:56.720Z,100.00
2023-04-22T13:03:24.945Z,100.00
2023-04-22T13:05:52.690Z,100.00
2023-04-22T13:08:19.414Z,100.00
2023-04-22T13:10:54.699Z,100.00
2023-04-22T13:13:21.500Z,100.00
2023-04-22T13:15:54.156Z,100.00
2023-04-22T13:18:29.469Z,100.00
2023-04-22T13:21:00.514Z,100.00
2023-04-22T13:23:33.930Z,100.00
2023-04-22T13:26:03.868Z,100.00
2023-04-22T13:28:30.584Z,100.00
2023-04-22T13:30:57.376Z,100.00
2023-04-22T13:33:24.147Z,100.00
2023-04-22T13:35:50.920Z,100.00
2023-04-22T13:38:17.689Z,100.00
2023-04-22T13:40:44.378Z,100.00
2023-04-22T13:43:12.386Z,100.00
2023-04-22T13:45:40.245Z,100.00
2023-04-22T13:48:10.404Z,100.00
2023-04-22T13:50:37.205Z,100.00
2023-04-22T13:53:10.020Z,100.00
2023-04-22T13:55:44.393Z,100.00
2023-04-22T13:58:11.381Z,100.00
2023-04-22T14:00:38.017Z,100.00
2023-04-22T14:03:05.456Z,100.00
2023-04-22T14:05:32.646Z,100.00
2023-04-22T14:08:03.361Z,100.00
2023-04-22T14:10:30.109Z,100.00
2023-04-22T14:13:03.735Z,100.00
2023-04-22T14:15:30.685Z,100.00
2023-04-22T14:17:58.158Z,100.00
2023-04-22T14:20:25.678Z,100.00
2023-04-22T14:22:55.287Z,100.00
2023-04-22T14:25:22.751Z,100.00
2023-04-22T14:27:55.540Z,100.00
2023-04-22T14:30:22.366Z,100.00
2023-04-22T14:32:49.905Z,100.00
2023-04-22T14:35:17.767Z,100.00
2023-04-22T14:37:53.711Z,100.00
2023-04-22T14:40:20.744Z,100.00
2023-04-22T14:42:50.037Z,100.00
2023-04-22T14:45:16.958Z,100.00
2023-04-22T14:47:51.423Z,100.00
2023-04-22T14:50:18.357Z,100.00
2023-04-22T14:52:45.009Z,100.00
2023-04-22T14:55:22.684Z,100.00
2023-04-22T14:57:56.934Z,100.00
2023-04-22T15:00:25.364Z,100.00
2023-04-22T15:02:55.344Z,100.00
2023-04-22T15:05:24.788Z,100.00
2023-04-22T15:07:54.833Z,100.00
2023-04-22T15:10:21.750Z,100.00
2023-04-22T15:12:48.737Z,100.00
2023-04-22T15:15:17.009Z,100.00
2023-04-22T15:17:44.677Z,100.00
2023-04-22T15:20:12.679Z,100.00
2023-04-22T15:22:43.109Z,100.00
2023-04-22T15:25:10.692Z,100.00
2023-04-22T15:27:39.466Z,100.00
2023-04-22T15:30:07.613Z,100.00
2023-04-22T15:32:38.321Z,100.00
2023-04-22T15:35:08.617Z,100.00
2023-04-22T15:37:35.555Z,100.00
2023-04-22T15:40:02.270Z,100.00
2023-04-22T15:42:29.071Z,100.00
2023-04-22T15:44:55.908Z,100.00
2023-04-22T15:47:22.783Z,100.00
2023-04-22T15:49:55.394Z,100.00
2023-04-22T15:52:22.133Z,100.00
2023-04-22T15:54:52.569Z,100.00
2023-04-22T15:57:19.552Z,100.00
2023-04-22T15:59:51.518Z,100.00
2023-04-22T16:02:29.131Z,100.00
2023-04-22T16:04:57.021Z,100.00
2023-04-22T16:07:24.249Z,100.00
2023-04-22T16:09:51.100Z,100.00
2023-04-22T16:12:33.538Z,100.00
2023-04-22T16:15:02.918Z,100.00
2023-04-22T16:17:37.261Z,100.00
2023-04-22T16:20:08.666Z,100.00
2023-04-22T16:22:35.474Z,100.00
2023-04-22T16:25:02.336Z,100.00
2023-04-22T16:27:29.085Z,100.00
2023-04-22T16:29:56.132Z,100.00
2023-04-22T16:32:22.954Z,100.00
2023-04-22T16:34:56.137Z,100.00
2023-04-22T16:37:22.902Z,100.00
2023-04-22T16:39:49.665Z,100.00
2023-04-22T16:42:16.436Z,100.00
2023-04-22T16:44:43.212Z,100.00
2023-04-22T16:47:09.948Z,100.00
2023-04-22T16:49:36.736Z,100.00
2023-04-22T16:52:03.838Z,100.00
2023-04-22T16:54:33.424Z,100.00
2023-04-22T16:57:00.132Z,100.00
2023-04-22T16:59:31.633Z,100.00
2023-04-22T17:01:58.550Z,100.00
2023-04-22T17:04:25.739Z,100.00
2023-04-22T17:06:53.296Z,100.00
2023-04-22T17:09:20.124Z,100.00
2023-04-22T17:11:46.964Z,100.00
2023-04-22T17:14:14.500Z,100.00
2023-04-22T17:16:41.236Z,100.00
2023-04-22T17:19:08.011Z,100.00
2023-04-22T17:21:37.842Z,100.00
2023-04-22T17:24:05.982Z,100.00
2023-04-22T17:26:33.655Z,100.00
2023-04-22T17:29:00.627Z,100.00
2023-04-22T17:31:27.530Z,100.00
2023-04-22T17:33:54.997Z,100.00
2023-04-22T17:36:22.908Z,100.00
2023-04-22T17:38:52.576Z,100.00
2023-04-22T17:41:19.408Z,100.00
2023-04-22T17:43:46.165Z,100.00
2023-04-22T17:46:15.749Z,100.00
2023-04-22T17:48:42.598Z,100.00
2023-04-22T17:51:10.280Z,100.00
2023-04-22T17:53:37.790Z,100.00
2023-04-22T17:56:04.583Z,100.00
2023-04-22T17:58:31.337Z,100.00
2023-04-22T18:01:00.192Z,100.00
2023-04-22T18:03:28.016Z,100.00
2023-04-22T18:05:54.978Z,100.00
2023-04-22T18:08:22.243Z,100.00
2023-04-22T18:10:49.092Z,100.00
2023-04-22T18:13:16.290Z,100.00
2023-04-22T18:15:43.118Z,100.00
2023-04-22T18:18:09.846Z,100.00
2023-04-22T18:20:36.721Z,100.00
2023-04-22T18:23:10.324Z,100.00
2023-04-22T18:25:37.262Z,100.00
2023-04-22T18:28:04.282Z,100.00
2023-04-22T18:30:32.689Z,100.00
2023-04-22T18:32:59.780Z,100.00
2023-04-22T18:35:27.011Z,100.00
2023-04-22T18:37:53.701Z,100.00
2023-04-22T18:40:21.348Z,100.00
2023-04-22T18:42:56.964Z,100.00
2023-04-22T18:45:23.889Z,100.00
2023-04-22T18:47:50.821Z,100.00
2023-04-22T18:50:17.672Z,100.00
2023-04-22T18:52:44.980Z,100.00
2023-04-22T18:55:11.763Z,100.00
2023-04-22T18:57:41.721Z,100.00
2023-04-22T19:00:12.295Z,100.00
2023-04-22T19:02:42.168Z,100.00
2023-04-22T19:05:09.874Z,100.00
2023-04-22T19:07:37.398Z,100.00
2023-04-22T19:10:05.607Z,100.00
2023-04-22T19:12:32.371Z,100.00
2023-04-22T19:15:03.810Z,100.00
2023-04-22T19:17:38.948Z,100.00
2023-04-22T19:20:06.607Z,100.00
2023-04-22T19:22:33.437Z,100.00
2023-04-22T19:25:01.212Z,100.00
2023-04-22T19:27:34.657Z,100.00
2023-04-22T19:30:02.350Z,100.00
2023-04-22T19:32:38.758Z,100.00
2023-04-22T19:35:27.536Z,100.00
2023-04-22T19:37:55.483Z,100.00
2023-04-22T19:40:22.381Z,100.00
2023-04-22T19:42:49.318Z,100.00
2023-04-22T19:45:25.899Z,100.00
2023-04-22T19:48:08.884Z,100.00
2023-04-22T19:50:36.730Z,100.00
2023-04-22T19:53:13.408Z,100.00
2023-04-22T19:55:45.408Z,100.00
2023-04-22T19:58:44.845Z,100.00
2023-04-22T20:02:00.626Z,100.00
2023-04-22T20:04:55.741Z,100.00
2023-04-22T20:07:23.549Z,100.00
2023-04-22T20:09:56.401Z,100.00
2023-04-22T20:12:28.793Z,100.00
2023-04-22T20:15:00.337Z,100.00
2023-04-22T20:17:35.899Z,100.00
2023-04-22T20:20:07.664Z,100.00
2023-04-22T20:22:36.402Z,100.00
2023-04-22T20:25:56.122Z,100.00
2023-04-22T20:29:23.870Z,100.00
2023-04-22T20:32:51.848Z,100.00
2023-04-22T20:36:18.367Z,100.00
2023-04-22T20:39:44.314Z,100.00
2023-04-22T20:43:10.150Z,100.00
2023-04-22T20:46:35.587Z,100.00
2023-04-22T20:50:01.475Z,100.00
2023-04-22T20:53:28.383Z,100.00
2023-04-22T20:56:57.948Z,100.00
2023-04-22T21:00:25.777Z,100.00
2023-04-22T21:03:52.704Z,100.00
2023-04-22T21:07:18.069Z,100.00
2023-04-22T21:10:43.125Z,100.00
2023-04-22T21:14:08.200Z,100.00
2023-04-22T21:17:38.069Z,100.00
2023-04-22T21:21:04.193Z,100.00
2023-04-22T21:24:31.243Z,100.00
2023-04-22T21:27:59.152Z,100.00
2023-04-22T21:31:24.460Z,100.00
2023-04-22T21:34:49.252Z,100.00
2023-04-22T21:38:20.214Z,100.00
2023-04-22T21:41:50.734Z,100.00
2023-04-22T21:45:08.229Z,100.00
2023-04-22T21:48:32.032Z,100.00
2023-04-22T21:52:03.664Z,100.00
2023-04-22T21:55:28.548Z,100.00
2023-04-22T21:58:53.804Z,100.00
2023-04-22T22:02:07.130Z,100.00
2023-04-22T22:05:31.069Z,100.00
2023-04-22T22:08:53.527Z,100.00
2023-04-22T22:12:12.279Z,100.00
2023-04-22T22:15:33.468Z,100.00
2023-04-22T22:18:40.048Z,100.00
2023-04-22T22:22:03.391Z,100.00
2023-04-22T22:25:22.080Z,100.00
2023-04-22T22:28:48.250Z,100.00
2023-04-22T22:32:13.400Z,100.00
2023-04-22T22:35:38.318Z,100.00
2023-04-22T22:39:06.930Z,100.00
2023-04-22T22:42:31.948Z,100.00
2023-04-22T22:45:56.893Z,100.00
2023-04-22T22:49:21.128Z,100.00
2023-04-22T22:52:45.931Z,100.00
2023-04-22T22:56:11.354Z,100.00
2023-04-22T22:59:36.869Z,100.00
2023-04-22T23:03:05.634Z,100.00
2023-04-22T23:06:32.134Z,100.00
2023-04-22T23:10:04.374Z,100.00
2023-04-22T23:13:29.960Z,100.00
2023-04-22T23:16:55.286Z,100.00
2023-04-22T23:20:22.121Z,100.00
2023-04-22T23:23:48.708Z,100.00
2023-04-22T23:27:23.460Z,100.00
2023-04-22T23:30:54.454Z,100.00
2023-04-22T23:34:21.752Z,100.00
2023-04-22T23:37:47.744Z,100.00
2023-04-22T23:41:13.493Z,100.00
2023-04-22T23:44:39.104Z,100.00
2023-04-22T23:48:04.823Z,100.00
2023-04-22T23:51:30.450Z,100.00
2023-04-22T23:55:02.370Z,100.00
2023-04-22T23:58:27.863Z,100.00
